NK75 weather

Thomas E. Perdue Heliport
Massena, New York, United States

Public forecast

Using degrees Fahrenheit for public forecast. Weather courtesy of forecast.io.

METAR (pilot weather report)

Closest report is Massena International Richards Field, 2.7 nm (5.0 km) E. Retrieved 2019/05/25 03:53 UTC (30 minutes ago):

KMSS 250353Z AUTO 00000KT 9SM CLR 08/08 A3015 RMK AO2 SLP211 T00830078

TAF (pilot weather forecast)

Forecast is more than 12 hours old.

Closest forecast is Massena International Richards Field, 2.7 nm (5.0 km) E. Retrieved 2019/05/24 00:24 UTC (1 day ago):

TAF KMSS 242322Z 2500/2524 VRB04KT P6SM SCT045 FM251600 19007KT P6SM VCSH BKN120 FM251800 20006KT 4SM -SHRA BR OVC080 FM252200 16009KT 4SM -SHRA BR OVC025